GCXO Airport Information

Runway Information
Runway 12 Length 11155 ft width 148 ft
Elevation 2060 ft Threshold 0 ft Heading 111
Runway 30 Length 11155 ft Width 148 ft
Elevation 2002 ft Threshold 0 ft Heading 291
Airport Frequencies
Type APP Name APP Frequency 119.7 MHZ
Type ATIS Name ATIS Frequency 118.575 MHZ
Type GND Name GND Frequency 121.7 MHZ
Type TWR Name TWR Frequency 118.7 MHZ
Airport Navaids
Type VOR-DME Name Tenerife Norte Frequency 117700 KHZ
Type NDB Name Tenerife Norte Frequency 410 KHZ
Airport Weather Information & NOTAM
ADDS - METARS form results

(0153 UTC 23 January 2019)
Data provider http://aviationweather.gov/metar/data/
 
METAR text: GCXO 230130Z AUTO 11004KT 080V150 9999 OVC026/// 11/07 Q1027
Conditions at: GCXO (TENERIFE/LOS ROD, ES) observed 0130 UTC 23 January 2019
Temperature: 11.0°C (52°F)
Dewpoint: 7.0°C (45°F) [RH = 76%]
Pressure (altimeter): 30.32 inches Hg (1027.0 mb)
Winds: from the ESE (110 degrees) at 5 MPH (4 knots; 2.1 m/s)
Visibility: 6 or more miles (10+ km)
Ceiling: 2600 feet AGL
Clouds: overcast cloud deck at 2600 feet AGL
Weather: no significant weather observed at this time

METAR text: GCXO 230100Z AUTO 10005KT 070V170 9999 BKN025/// 11/07 Q1027
Conditions at: GCXO (TENERIFE/LOS ROD, ES) observed 0100 UTC 23 January 2019
Temperature: 11.0°C (52°F)
Dewpoint: 7.0°C (45°F) [RH = 76%]
Pressure (altimeter): 30.32 inches Hg (1027.0 mb)
Winds: from the E (100 degrees) at 6 MPH (5 knots; 2.6 m/s)
Visibility: 6 or more miles (10+ km)
Ceiling: 2500 feet AGL
Clouds: broken clouds at 2500 feet AGL
Weather: no significant weather observed at this time

Forecast for: GCXO (TENERIFE/LOS ROD, ES)
Text: TAF GCXO 222000Z 2221/2321 08008KT 9999 SCT020 TX15/2314Z TN10/2306Z
Forecast period: 2100 UTC 22 January 2019 to 0800 UTC 23 January 2019
Forecast type: FROM: standard forecast or significant change
Winds: from the E (80 degrees) at 9 MPH (8 knots; 4.1 m/s)
Visibility: 6 or more miles 10+ km)
Ceiling: at least 12,000 feet AGL
Clouds: scattered clouds at 2000 feet AGL
Weather: no significant weather forecast for this period
Text: BECMG 2308/2310 02010KT
Forecast period: 0800 to 2100 UTC 23 January 2019
Forecast type: BECOMING: Conditions expected to become as follows by 1000 UTC 23 January 2019
Winds: from the NNE (20 degrees) at 12 MPH (10 knots; 5.1 m/s)
Visibility: 6 or more miles 10+ km)
Ceiling: at least 12,000 feet AGL
Clouds: scattered clouds at 2000 feet AGL
Weather: no significant weather forecast for this period